Time;durP1;ratioP1;P1;durP2;ratioP2;P2;SDS_P1;SDS_P2;PMS_P1;PMS_P2;Temp;Humidity;BMP_temperature;BMP_pressure;BME280_temperature;BME280_humidity;BME280_pressure;Samples;Min_cycle;Max_cycle;Signal;HPM_P1;HPM_P2
2024/01/15 00:00:00;;;;;;;4.33;2.73;;;;;;;;;;5070018;28;20295;-80
2024/01/15 00:02:28;;;;;;;5.93;1.90;;;;;;;;;;5071900;28;20292;-80
2024/01/15 00:04:57;;;;;;;3.27;1.77;;;;;;;;;;5071748;28;20197;-80
2024/01/15 00:07:25;;;;;;;4.90;2.83;;;;;;;;;;5070303;28;20198;-81
2024/01/15 00:09:55;;;;;;;8.30;1.93;;;;;;;;;;5069622;28;20241;-80
2024/01/15 00:12:24;;;;;;;3.23;2.33;;;;;;;;;;5070150;28;20204;-80
2024/01/15 00:14:52;;;;;;;1.33;1.23;;;;;;;;;;5070793;28;20208;-80
2024/01/15 00:17:21;;;;;;;1.93;1.17;;;;;;;;;;5071903;28;20239;-81
2024/01/15 00:19:49;;;;;;;3.97;1.87;;;;;;;;;;5071075;28;20225;-80
2024/01/15 00:22:18;;;;;;;4.03;1.80;;;;;;;;;;5070048;28;20259;-80
2024/01/15 00:24:46;;;;;;;3.83;1.20;;;;;;;;;;5071747;28;20214;-81
2024/01/15 00:27:16;;;;;;;1.97;1.17;;;;;;;;;;5070339;28;20198;-80
2024/01/15 00:29:45;;;;;;;3.20;1.00;;;;;;;;;;5071173;28;20221;-80
2024/01/15 00:32:13;;;;;;;0.90;0.90;;;;;;;;;;5071012;28;20189;-81
2024/01/15 00:34:42;;;;;;;1.13;1.13;;;;;;;;;;5071515;28;20200;-81
2024/01/15 00:37:10;;;;;;;2.20;1.43;;;;;;;;;;5070216;28;20239;-80
2024/01/15 00:39:39;;;;;;;4.97;1.43;;;;;;;;;;5071056;28;20263;-81
2024/01/15 00:42:07;;;;;;;4.47;1.50;;;;;;;;;;5069670;28;20212;-81
2024/01/15 00:44:37;;;;;;;3.23;1.87;;;;;;;;;;5069937;28;20198;-80
2024/01/15 00:47:06;;;;;;;1.73;1.63;;;;;;;;;;5071390;28;20201;-81
2024/01/15 00:49:34;;;;;;;4.33;2.13;;;;;;;;;;5071152;28;20212;-81
2024/01/15 00:52:03;;;;;;;8.73;1.23;;;;;;;;;;5069917;28;20224;-81
2024/01/15 00:54:31;;;;;;;3.87;1.77;;;;;;;;;;5070756;28;20198;-81
2024/01/15 00:57:00;;;;;;;2.87;2.37;;;;;;;;;;5070427;28;20193;-81
2024/01/15 00:59:28;;;;;;;7.20;1.97;;;;;;;;;;5069779;28;20186;-81
2024/01/15 01:01:58;;;;;;;5.53;2.40;;;;;;;;;;5070818;28;20205;-84
2024/01/15 01:04:27;;;;;;;9.43;2.27;;;;;;;;;;5069904;28;20208;-84
2024/01/15 01:06:56;;;;;;;6.70;1.53;;;;;;;;;;5070010;28;20193;-84
2024/01/15 01:09:24;;;;;;;6.50;2.60;;;;;;;;;;5072026;28;20264;-84
2024/01/15 01:11:53;;;;;;;3.07;2.10;;;;;;;;;;5072958;28;20193;-83
2024/01/15 01:14:22;;;;;;;9.47;2.13;;;;;;;;;;5090641;28;20204;-84
2024/01/15 01:16:50;;;;;;;9.07;2.03;;;;;;;;;;5091307;28;20224;-84
2024/01/15 01:19:20;;;;;;;3.13;1.80;;;;;;;;;;5072707;28;20290;-84
2024/01/15 01:21:50;;;;;;;11.23;2.30;;;;;;;;;;5072828;28;20207;-84
2024/01/15 01:24:22;;;;;;;7.87;2.47;;;;;;;;;;5072358;28;20219;-84
2024/01/15 01:26:50;;;;;;;1.27;1.13;;;;;;;;;;5073366;28;20270;-84
2024/01/15 01:29:22;;;;;;;2.83;1.20;;;;;;;;;;5090820;28;20223;-84
2024/01/15 01:31:51;;;;;;;4.03;1.27;;;;;;;;;;5090616;28;20193;-84
2024/01/15 01:34:21;;;;;;;2.73;1.13;;;;;;;;;;5072550;28;20201;-84
2024/01/15 01:36:50;;;;;;;1.73;1.63;;;;;;;;;;5090812;28;20189;-84
2024/01/15 01:39:18;;;;;;;5.70;1.53;;;;;;;;;;5090787;28;20204;-84
2024/01/15 01:41:47;;;;;;;2.63;1.20;;;;;;;;;;5072814;28;20227;-83
2024/01/15 01:44:15;;;;;;;0.93;0.93;;;;;;;;;;5072230;28;20197;-83
2024/01/15 01:46:44;;;;;;;1.53;1.10;;;;;;;;;;5072777;28;20196;-83
2024/01/15 01:49:12;;;;;;;4.07;2.20;;;;;;;;;;5090694;28;20231;-83
2024/01/15 01:51:42;;;;;;;22.07;4.30;;;;;;;;;;5074225;28;20219;-83
2024/01/15 01:54:13;;;;;;;6.77;2.07;;;;;;;;;;5075522;28;20199;-83
2024/01/15 01:56:42;;;;;;;1.00;1.00;;;;;;;;;;5094001;28;20279;-83
2024/01/15 01:59:11;;;;;;;5.00;1.40;;;;;;;;;;5094269;28;20246;-83
2024/01/15 02:01:40;;;;;;;7.47;1.90;;;;;;;;;;5076371;28;20200;-83
2024/01/15 02:04:09;;;;;;;7.30;2.70;;;;;;;;;;5093968;28;20205;-83
2024/01/15 02:06:38;;;;;;;7.30;2.87;;;;;;;;;;5075706;28;20201;-83
2024/01/15 02:09:09;;;;;;;6.30;2.10;;;;;;;;;;5093841;28;20210;-83
2024/01/15 02:11:38;;;;;;;7.00;2.60;;;;;;;;;;5094122;28;20278;-83
2024/01/15 02:14:07;;;;;;;9.20;2.10;;;;;;;;;;5094074;28;20284;-83
2024/01/15 02:16:35;;;;;;;4.70;2.07;;;;;;;;;;5075446;28;20197;-83
2024/01/15 02:19:04;;;;;;;7.63;2.83;;;;;;;;;;5075991;28;20193;-83
2024/01/15 02:21:32;;;;;;;1.00;1.00;;;;;;;;;;5075910;28;20193;-83
2024/01/15 02:24:03;;;;;;;9.47;3.50;;;;;;;;;;5093701;28;20217;-83
2024/01/15 02:26:35;;;;;;;8.37;2.70;;;;;;;;;;5093474;28;20256;-83
2024/01/15 02:29:04;;;;;;;5.53;2.43;;;;;;;;;;5075456;28;20193;-82
2024/01/15 02:31:32;;;;;;;10.13;3.33;;;;;;;;;;5075955;28;20213;-82
2024/01/15 02:34:01;;;;;;;7.97;3.47;;;;;;;;;;5075746;28;20216;-82
2024/01/15 02:36:29;;;;;;;8.97;2.03;;;;;;;;;;5075462;28;20223;-82
2024/01/15 02:38:58;;;;;;;3.90;2.37;;;;;;;;;;5075259;28;20189;-82
2024/01/15 02:41:28;;;;;;;4.03;2.27;;;;;;;;;;5075897;28;20194;-82
2024/01/15 02:43:56;;;;;;;1.30;1.23;;;;;;;;;;5093988;28;20207;-82
2024/01/15 02:46:24;;;;;;;8.00;2.07;;;;;;;;;;5075266;28;20201;-82
2024/01/15 02:48:53;;;;;;;3.13;1.73;;;;;;;;;;5093275;28;20266;-82
2024/01/15 02:51:21;;;;;;;3.87;1.20;;;;;;;;;;5075446;28;20251;-82
2024/01/15 02:53:51;;;;;;;3.63;1.77;;;;;;;;;;5093340;28;20188;-82
2024/01/15 02:56:19;;;;;;;2.57;1.57;;;;;;;;;;5092909;28;20197;-82
2024/01/15 02:58:51;;;;;;;2.47;1.63;;;;;;;;;;5074682;28;20200;-82
2024/01/15 03:01:20;;;;;;;2.37;1.73;;;;;;;;;;5092829;28;20200;-82
2024/01/15 03:03:51;;;;;;;1.80;1.13;;;;;;;;;;5075283;28;20201;-82
2024/01/15 03:06:20;;;;;;;5.57;1.77;;;;;;;;;;5093130;28;20291;-82
2024/01/15 03:08:48;;;;;;;1.20;1.10;;;;;;;;;;5074552;28;20201;-81
2024/01/15 03:11:19;;;;;;;5.83;2.50;;;;;;;;;;5093103;28;20233;-81
2024/01/15 03:13:49;;;;;;;4.20;1.70;;;;;;;;;;5074783;28;20200;-81
2024/01/15 03:16:19;;;;;;;1.53;1.20;;;;;;;;;;5074697;28;20266;-82
2024/01/15 03:18:47;;;;;;;6.13;2.20;;;;;;;;;;5092127;28;20205;-81
2024/01/15 03:21:16;;;;;;;1.10;1.00;;;;;;;;;;5092728;28;20189;-81
2024/01/15 03:23:45;;;;;;;4.43;1.37;;;;;;;;;;5092983;28;20224;-81
2024/01/15 03:26:13;;;;;;;1.33;1.33;;;;;;;;;;5092968;28;20210;-81
2024/01/15 03:28:42;;;;;;;8.37;2.33;;;;;;;;;;5073964;28;20200;-81
2024/01/15 03:31:11;;;;;;;1.50;1.10;;;;;;;;;;5092478;28;20220;-81
2024/01/15 03:33:40;;;;;;;3.03;1.93;;;;;;;;;;5074705;28;20199;-81
2024/01/15 03:36:09;;;;;;;2.30;1.40;;;;;;;;;;5074766;28;20197;-81
2024/01/15 03:38:40;;;;;;;2.23;1.67;;;;;;;;;;5074114;28;20197;-81
2024/01/15 03:41:09;;;;;;;5.97;1.90;;;;;;;;;;5092293;28;20271;-81
2024/01/15 03:43:37;;;;;;;4.10;1.53;;;;;;;;;;5074469;28;20315;-81
2024/01/15 03:46:05;;;;;;;8.30;2.47;;;;;;;;;;5074493;28;20197;-81
2024/01/15 03:48:35;;;;;;;5.97;2.63;;;;;;;;;;5091701;28;20227;-81
2024/01/15 03:51:04;;;;;;;8.73;2.67;;;;;;;;;;5073830;28;20251;-81
2024/01/15 03:53:33;;;;;;;9.03;2.63;;;;;;;;;;5074090;28;20246;-81
2024/01/15 03:56:01;;;;;;;1.70;1.43;;;;;;;;;;5074379;28;20204;-81
2024/01/15 03:58:30;;;;;;;1.97;1.40;;;;;;;;;;5091855;28;20250;-81
2024/01/15 04:00:58;;;;;;;2.43;1.23;;;;;;;;;;5092015;28;20213;-81
2024/01/15 04:03:28;;;;;;;1.20;1.20;;;;;;;;;;5074337;28;20201;-81
2024/01/15 04:05:58;;;;;;;3.70;1.13;;;;;;;;;;5074307;28;20300;-81
2024/01/15 04:08:26;;;;;;;6.13;1.50;;;;;;;;;;5092022;28;20197;-81
2024/01/15 04:10:55;;;;;;;1.20;1.20;;;;;;;;;;5091227;28;20229;-81
2024/01/15 04:13:24;;;;;;;6.43;1.63;;;;;;;;;;5073932;28;20203;-81
2024/01/15 04:15:52;;;;;;;1.37;1.27;;;;;;;;;;5091495;28;20201;-81
2024/01/15 04:18:21;;;;;;;3.93;1.90;;;;;;;;;;5091501;28;20291;-80
2024/01/15 04:20:49;;;;;;;1.00;1.00;;;;;;;;;;5091191;28;20181;-80
2024/01/15 04:23:19;;;;;;;6.93;1.47;;;;;;;;;;5091880;28;20196;-81
2024/01/15 04:25:47;;;;;;;1.40;1.17;;;;;;;;;;5073440;28;20205;-80
2024/01/15 04:28:16;;;;;;;1.10;1.10;;;;;;;;;;5073105;28;20192;-81
2024/01/15 04:30:44;;;;;;;1.10;1.00;;;;;;;;;;5073128;28;20250;-81
2024/01/15 04:33:13;;;;;;;3.13;1.43;;;;;;;;;;5073288;28;20330;-81
2024/01/15 04:35:41;;;;;;;0.80;0.80;;;;;;;;;;5073902;28;20197;-82
2024/01/15 04:38:10;;;;;;;4.33;1.80;;;;;;;;;;5091274;28;20196;-83
2024/01/15 04:40:40;;;;;;;2.53;1.63;;;;;;;;;;5072749;28;20217;-83
2024/01/15 04:43:09;;;;;;;0.80;0.80;;;;;;;;;;5091061;28;20283;-84
2024/01/15 04:45:37;;;;;;;1.10;1.00;;;;;;;;;;5073138;28;20193;-84
2024/01/15 04:48:09;;;;;;;2.70;2.60;;;;;;;;;;5091087;28;20216;-84
2024/01/15 04:50:37;;;;;;;0.87;0.87;;;;;;;;;;5072966;28;20227;-83
2024/01/15 04:53:06;;;;;;;4.80;1.73;;;;;;;;;;5072698;28;20225;-84
2024/01/15 04:55:39;;;;;;;0.80;0.80;;;;;;;;;;5073417;28;20291;-84
2024/01/15 04:58:08;;;;;;;1.20;1.20;;;;;;;;;;5072885;28;20217;-84
2024/01/15 05:00:36;;;;;;;0.80;0.80;;;;;;;;;;5072789;28;20199;-84
2024/01/15 05:03:05;;;;;;;0.80;0.80;;;;;;;;;;5090921;28;20255;-84
2024/01/15 05:05:34;;;;;;;0.80;0.80;;;;;;;;;;5073100;28;20203;-85
2024/01/15 05:08:02;;;;;;;0.70;0.70;;;;;;;;;;5072913;28;20200;-85
2024/01/15 05:10:33;;;;;;;0.80;0.80;;;;;;;;;;5072381;28;20236;-85
2024/01/15 05:13:03;;;;;;;0.80;0.80;;;;;;;;;;5090391;28;20220;-85
2024/01/15 05:15:34;;;;;;;0.70;0.70;;;;;;;;;;5091639;28;20207;-85
2024/01/15 05:18:03;;;;;;;0.80;0.80;;;;;;;;;;5072903;28;20206;-85
2024/01/15 05:20:32;;;;;;;0.80;0.80;;;;;;;;;;5091077;28;20210;-85
2024/01/15 05:23:01;;;;;;;0.70;0.70;;;;;;;;;;5072567;28;20191;-84
2024/01/15 05:25:29;;;;;;;0.70;0.70;;;;;;;;;;5072965;28;20208;-84
2024/01/15 05:27:59;;;;;;;0.80;0.80;;;;;;;;;;5076075;28;20200;-84
2024/01/15 05:30:29;;;;;;;4.43;4.10;;;;;;;;;;5095373;28;20287;-84
2024/01/15 05:33:01;;;;;;;0.70;0.70;;;;;;;;;;5076224;28;20216;-85
2024/01/15 05:35:29;;;;;;;1.00;1.00;;;;;;;;;;5076624;28;20219;-85
2024/01/15 05:37:58;;;;;;;1.23;1.23;;;;;;;;;;5077123;28;20197;-85
2024/01/15 05:40:29;;;;;;;0.80;0.80;;;;;;;;;;5094805;28;20200;-85
2024/01/15 05:42:57;;;;;;;0.70;0.70;;;;;;;;;;5076556;28;20193;-84
2024/01/15 05:45:28;;;;;;;0.70;0.70;;;;;;;;;;5075915;28;20220;-84
2024/01/15 05:47:58;;;;;;;0.80;0.80;;;;;;;;;;5077153;28;20223;-84
2024/01/15 05:50:27;;;;;;;1.10;1.00;;;;;;;;;;5095171;28;20217;-84
2024/01/15 05:52:55;;;;;;;0.70;0.70;;;;;;;;;;5094095;28;20228;-84
2024/01/15 05:55:23;;;;;;;0.80;0.80;;;;;;;;;;5094363;28;20229;-84
2024/01/15 05:57:52;;;;;;;0.70;0.70;;;;;;;;;;5076956;28;20201;-83
2024/01/15 06:00:21;;;;;;;0.70;0.70;;;;;;;;;;5095187;28;20260;-83
2024/01/15 06:02:50;;;;;;;4.77;1.80;;;;;;;;;;5076806;28;20195;-83
2024/01/15 06:05:20;;;;;;;8.17;2.30;;;;;;;;;;5093867;28;20231;-83
2024/01/15 06:07:48;;;;;;;10.23;3.07;;;;;;;;;;5094844;28;20194;-83
2024/01/15 06:10:19;;;;;;;9.27;2.93;;;;;;;;;;5075639;28;20245;-85
2024/01/15 06:12:47;;;;;;;1.70;1.60;;;;;;;;;;5095224;28;20215;-85
2024/01/15 06:15:16;;;;;;;0.80;0.80;;;;;;;;;;5075724;28;20195;-86
2024/01/15 06:17:44;;;;;;;0.70;0.70;;;;;;;;;;5093831;28;20198;-86
2024/01/15 06:20:13;;;;;;;0.80;0.80;;;;;;;;;;5076106;28;20200;-86
2024/01/15 06:22:43;;;;;;;0.80;0.80;;;;;;;;;;5095645;28;20191;-86
2024/01/15 06:25:12;;;;;;;0.80;0.80;;;;;;;;;;5093487;28;20280;-85
2024/01/15 06:27:40;;;;;;;0.80;0.80;;;;;;;;;;5075900;28;20202;-86
2024/01/15 06:30:09;;;;;;;0.80;0.80;;;;;;;;;;5075761;28;20198;-86
2024/01/15 06:32:38;;;;;;;0.80;0.80;;;;;;;;;;5075947;28;20240;-86
2024/01/15 06:35:07;;;;;;;0.80;0.80;;;;;;;;;;5093649;28;20244;-85
2024/01/15 06:37:36;;;;;;;0.70;0.70;;;;;;;;;;5093187;28;20223;-84
2024/01/15 06:40:06;;;;;;;0.70;0.70;;;;;;;;;;5093555;28;20199;-84
2024/01/15 06:42:35;;;;;;;0.80;0.80;;;;;;;;;;5075781;28;20205;-84
2024/01/15 06:45:03;;;;;;;0.80;0.80;;;;;;;;;;5075141;28;20234;-85
2024/01/15 06:47:32;;;;;;;2.30;2.30;;;;;;;;;;5074892;28;20202;-84
2024/01/15 06:50:01;;;;;;;1.03;1.03;;;;;;;;;;5093390;28;20230;-85
2024/01/15 06:52:30;;;;;;;0.70;0.70;;;;;;;;;;5094118;28;20299;-86
2024/01/15 06:54:59;;;;;;;0.80;0.80;;;;;;;;;;5093301;28;20195;-84
2024/01/15 06:57:29;;;;;;;0.77;0.77;;;;;;;;;;5093220;28;20218;-85
2024/01/15 06:59:58;;;;;;;0.80;0.80;;;;;;;;;;5094125;28;20216;-85
2024/01/15 07:02:26;;;;;;;0.80;0.80;;;;;;;;;;5093966;28;20195;-85
2024/01/15 07:04:55;;;;;;;0.80;0.80;;;;;;;;;;5075838;28;20250;-84
2024/01/15 07:07:24;;;;;;;0.80;0.80;;;;;;;;;;5074933;28;20206;-85
2024/01/15 07:09:53;;;;;;;0.80;0.80;;;;;;;;;;5093627;28;20227;-84
2024/01/15 07:12:22;;;;;;;0.80;0.80;;;;;;;;;;5094484;28;20217;-85
2024/01/15 07:14:53;;;;;;;0.90;0.90;;;;;;;;;;5074745;28;20202;-85
2024/01/15 07:17:21;;;;;;;0.70;0.70;;;;;;;;;;5094519;28;20200;-85
2024/01/15 07:19:50;;;;;;;0.80;0.80;;;;;;;;;;5077363;28;20218;-84
2024/01/15 07:22:22;;;;;;;0.80;0.80;;;;;;;;;;5096212;28;20204;-84
2024/01/15 07:24:50;;;;;;;0.70;0.70;;;;;;;;;;5094000;28;20209;-85
2024/01/15 07:27:22;;;;;;;0.80;0.80;;;;;;;;;;5093307;28;20221;-83
2024/01/15 07:29:53;;;;;;;0.80;0.80;;;;;;;;;;5077002;28;20224;-86
2024/01/15 07:32:23;;;;;;;0.80;0.80;;;;;;;;;;5075787;28;20210;-86
2024/01/15 07:34:52;;;;;;;0.80;0.80;;;;;;;;;;5094507;28;20253;-86
2024/01/15 07:37:20;;;;;;;0.80;0.80;;;;;;;;;;5076406;28;20195;-86
2024/01/15 07:39:48;;;;;;;0.70;0.70;;;;;;;;;;5073885;28;20195;-87
2024/01/15 07:42:17;;;;;;;0.80;0.80;;;;;;;;;;5092214;28;20222;-87
2024/01/15 07:44:46;;;;;;;0.80;0.80;;;;;;;;;;5080983;28;20199;-87
2024/01/15 07:47:16;;;;;;;0.80;0.80;;;;;;;;;;5091949;28;20238;-86
2024/01/15 07:49:45;;;;;;;0.83;0.83;;;;;;;;;;5092765;28;20222;-87
2024/01/15 07:52:14;;;;;;;0.80;0.80;;;;;;;;;;5076257;28;20271;-86
2024/01/15 07:54:45;;;;;;;0.80;0.80;;;;;;;;;;5092094;27;20220;-85
2024/01/15 07:57:14;;;;;;;0.80;0.80;;;;;;;;;;5107964;28;20206;-85
2024/01/15 07:59:46;;;;;;;0.80;0.80;;;;;;;;;;5093780;28;20244;-85
2024/01/15 08:02:15;;;;;;;0.80;0.80;;;;;;;;;;5093118;28;20239;-85
2024/01/15 08:04:47;;;;;;;0.80;0.80;;;;;;;;;;5091928;28;20192;-85
2024/01/15 08:07:16;;;;;;;0.80;0.80;;;;;;;;;;5099445;28;20202;-85
2024/01/15 08:09:47;;;;;;;0.80;0.80;;;;;;;;;;5093155;28;20312;-85
2024/01/15 08:12:18;;;;;;;0.80;0.80;;;;;;;;;;5102040;27;20205;-85
2024/01/15 08:14:47;;;;;;;0.80;0.80;;;;;;;;;;5090564;28;20222;-85
2024/01/15 08:17:16;;;;;;;0.90;0.90;;;;;;;;;;5084390;28;20263;-84
2024/01/15 08:19:46;;;;;;;0.80;0.80;;;;;;;;;;5099343;27;20204;-85
2024/01/15 08:22:15;;;;;;;0.80;0.80;;;;;;;;;;5111815;27;20211;-84
2024/01/15 08:24:53;;;;;;;0.70;0.70;;;;;;;;;;5133477;27;20210;-84
2024/01/15 08:27:35;;;;;;;0.80;0.80;;;;;;;;;;5114656;27;20275;-84
2024/01/15 08:30:08;;;;;;;0.80;0.80;;;;;;;;;;5113694;27;20200;-84
2024/01/15 08:32:42;;;;;;;0.80;0.80;;;;;;;;;;5114574;27;20200;-84
2024/01/15 08:35:12;;;;;;;0.80;0.80;;;;;;;;;;5113694;27;20215;-84
2024/01/15 08:37:41;;;;;;;0.80;0.80;;;;;;;;;;5113607;27;20197;-84
2024/01/15 08:40:10;;;;;;;2.10;1.73;;;;;;;;;;5113049;27;20195;-84
2024/01/15 08:42:41;;;;;;;1.20;1.20;;;;;;;;;;5114479;27;20206;-83
2024/01/15 08:45:12;;;;;;;0.80;0.80;;;;;;;;;;5132115;27;20192;-83
2024/01/15 08:47:41;;;;;;;1.20;1.20;;;;;;;;;;5133154;27;20188;-83
2024/01/15 08:50:13;;;;;;;0.80;0.80;;;;;;;;;;5114909;27;20222;-82
2024/01/15 08:52:42;;;;;;;1.93;1.83;;;;;;;;;;5133139;27;20195;-83
2024/01/15 08:55:10;;;;;;;0.70;0.70;;;;;;;;;;5132130;27;20305;-83
2024/01/15 08:57:39;;;;;;;0.80;0.80;;;;;;;;;;5133680;27;20210;-83
2024/01/15 09:00:09;;;;;;;0.80;0.80;;;;;;;;;;5113860;27;20196;-83
2024/01/15 09:02:37;;;;;;;0.80;0.80;;;;;;;;;;5120384;27;20207;-83
2024/01/15 09:05:06;;;;;;;0.80;0.80;;;;;;;;;;5121028;27;20290;-83
2024/01/15 09:07:36;;;;;;;0.80;0.80;;;;;;;;;;5121843;27;20253;-83
2024/01/15 09:10:05;;;;;;;1.17;1.17;;;;;;;;;;5121625;27;20227;-83
2024/01/15 09:12:33;;;;;;;0.80;0.80;;;;;;;;;;5120531;27;20266;-83
2024/01/15 09:15:04;;;;;;;1.17;1.17;;;;;;;;;;5123020;27;20218;-83
2024/01/15 09:17:33;;;;;;;0.80;0.80;;;;;;;;;;5120760;27;20204;-83
2024/01/15 09:20:02;;;;;;;0.80;0.80;;;;;;;;;;5120271;27;20259;-83
2024/01/15 09:22:30;;;;;;;0.80;0.80;;;;;;;;;;5121235;27;20237;-82
2024/01/15 09:25:04;;;;;;;0.80;0.80;;;;;;;;;;5121438;27;20255;-83
2024/01/15 09:27:39;;;;;;;0.80;0.80;;;;;;;;;;5122323;27;20209;-83
2024/01/15 09:30:08;;;;;;;0.80;0.80;;;;;;;;;;5121182;27;20201;-84
2024/01/15 09:32:37;;;;;;;0.80;0.80;;;;;;;;;;5138210;27;20206;-83
2024/01/15 09:35:07;;;;;;;2.93;1.30;;;;;;;;;;5121054;27;20249;-84
2024/01/15 09:37:38;;;;;;;3.00;2.70;;;;;;;;;;5140300;27;20198;-84
2024/01/15 09:40:25;;;;;;;0.83;0.83;;;;;;;;;;5123956;27;20195;-84
2024/01/15 09:42:58;;;;;;;1.03;1.03;;;;;;;;;;5117650;27;20198;-84
2024/01/15 09:45:32;;;;;;;4.97;1.00;;;;;;;;;;5139088;27;20240;-84
2024/01/15 09:48:01;;;;;;;0.80;0.80;;;;;;;;;;5139496;27;20282;-84
2024/01/15 09:50:30;;;;;;;1.43;1.33;;;;;;;;;;5121145;27;20230;-84
2024/01/15 09:53:01;;;;;;;1.03;1.03;;;;;;;;;;5120750;27;20236;-82
2024/01/15 09:55:33;;;;;;;0.80;0.80;;;;;;;;;;5129043;27;20314;-83
2024/01/15 09:58:04;;;;;;;0.80;0.80;;;;;;;;;;5140676;27;20220;-82
2024/01/15 10:00:47;;;;;;;0.80;0.80;;;;;;;;;;5120723;27;20202;-83
2024/01/15 10:03:19;;;;;;;0.80;0.80;;;;;;;;;;5120592;27;20225;-83
2024/01/15 10:05:48;;;;;;;0.80;0.80;;;;;;;;;;5138306;27;20211;-82
2024/01/15 10:08:16;;;;;;;0.80;0.80;;;;;;;;;;5120437;27;20202;-82
2024/01/15 10:10:46;;;;;;;0.87;0.87;;;;;;;;;;5120114;27;20234;-82
2024/01/15 10:13:16;;;;;;;2.50;2.50;;;;;;;;;;5135053;27;20196;-82
2024/01/15 10:15:47;;;;;;;0.80;0.80;;;;;;;;;;5136148;27;20237;-85
2024/01/15 10:18:16;;;;;;;0.80;0.80;;;;;;;;;;5118415;27;20243;-84
2024/01/15 10:20:45;;;;;;;0.80;0.80;;;;;;;;;;5118183;27;20195;-85
2024/01/15 10:23:13;;;;;;;0.80;0.80;;;;;;;;;;5117766;27;20207;-84
2024/01/15 10:25:43;;;;;;;0.80;0.80;;;;;;;;;;5116810;27;20202;-86
2024/01/15 10:28:15;;;;;;;0.70;0.70;;;;;;;;;;5116969;27;20204;-85
2024/01/15 10:30:43;;;;;;;0.70;0.70;;;;;;;;;;5117123;27;20291;-85
2024/01/15 10:33:12;;;;;;;0.80;0.80;;;;;;;;;;5136341;27;20202;-85
2024/01/15 10:35:42;;;;;;;0.70;0.70;;;;;;;;;;5135659;27;20215;-85
2024/01/15 10:38:11;;;;;;;0.80;0.80;;;;;;;;;;5116732;27;20196;-84
2024/01/15 10:40:42;;;;;;;1.00;1.00;;;;;;;;;;5117416;27;20244;-84
2024/01/15 10:43:12;;;;;;;1.00;1.00;;;;;;;;;;5116525;27;20190;-85
2024/01/15 10:45:41;;;;;;;0.80;0.80;;;;;;;;;;5133604;27;20198;-86
2024/01/15 10:48:09;;;;;;;0.80;0.80;;;;;;;;;;5117389;27;20199;-86
2024/01/15 10:50:38;;;;;;;0.80;0.80;;;;;;;;;;5135328;27;20545;-86
2024/01/15 10:53:07;;;;;;;0.80;0.80;;;;;;;;;;5116792;27;20206;-86
2024/01/15 10:55:36;;;;;;;0.80;0.80;;;;;;;;;;5133857;27;20217;-86
2024/01/15 10:58:07;;;;;;;0.70;0.70;;;;;;;;;;5134551;27;20202;-86
2024/01/15 11:00:37;;;;;;;1.20;1.20;;;;;;;;;;5116732;27;20201;-86
2024/01/15 11:03:07;;;;;;;0.90;0.90;;;;;;;;;;5135689;27;20195;-86
2024/01/15 11:05:38;;;;;;;0.80;0.80;;;;;;;;;;5134005;27;20202;-86
2024/01/15 11:08:07;;;;;;;0.80;0.80;;;;;;;;;;5133928;27;20195;-86
2024/01/15 11:10:46;;;;;;;0.80;0.80;;;;;;;;;;5115684;27;20241;-86
2024/01/15 11:13:17;;;;;;;0.80;0.80;;;;;;;;;;5115973;27;20198;-85
2024/01/15 11:16:00;;;;;;;0.80;0.80;;;;;;;;;;5117294;27;20219;-85
2024/01/15 11:18:30;;;;;;;3.13;3.03;;;;;;;;;;5133415;27;20394;-83
2024/01/15 11:21:17;;;;;;;0.90;0.90;;;;;;;;;;5133791;27;20195;-83
2024/01/15 11:23:47;;;;;;;7.40;1.67;;;;;;;;;;5133012;27;20254;-83
2024/01/15 11:26:38;;;;;;;1.27;1.20;;;;;;;;;;5114788;27;20191;-84
2024/01/15 11:29:07;;;;;;;5.67;2.40;;;;;;;;;;5133188;27;20217;-83
2024/01/15 11:31:53;;;;;;;11.53;2.77;;;;;;;;;;5133694;27;20219;-84
2024/01/15 11:34:44;;;;;;;8.70;2.40;;;;;;;;;;5134429;27;20210;-83
2024/01/15 11:37:14;;;;;;;12.30;2.90;;;;;;;;;;5114217;27;20192;-83
2024/01/15 11:39:43;;;;;;;7.10;2.70;;;;;;;;;;5133141;27;20248;-83
2024/01/15 11:42:13;;;;;;;6.67;2.50;;;;;;;;;;5114969;27;20195;-82
2024/01/15 11:44:44;;;;;;;8.30;2.27;;;;;;;;;;5115361;27;20254;-82
2024/01/15 11:47:13;;;;;;;2.13;1.93;;;;;;;;;;5133120;27;20243;-83
2024/01/15 11:49:58;;;;;;;8.67;2.60;;;;;;;;;;5132998;27;20226;-82
2024/01/15 11:52:26;;;;;;;11.67;3.33;;;;;;;;;;5114922;27;20210;-85
2024/01/15 11:54:58;;;;;;;2.23;1.90;;;;;;;;;;5133691;27;20219;-85
2024/01/15 11:57:30;;;;;;;2.10;1.83;;;;;;;;;;5114778;27;20206;-85
2024/01/15 11:59:58;;;;;;;5.03;1.40;;;;;;;;;;5133278;27;20202;-85
2024/01/15 12:02:27;;;;;;;6.13;1.63;;;;;;;;;;5134930;27;20198;-85
2024/01/15 12:04:57;;;;;;;10.03;2.57;;;;;;;;;;5114792;27;20196;-84
2024/01/15 12:07:25;;;;;;;5.60;2.73;;;;;;;;;;5133929;27;20194;-84
2024/01/15 12:09:54;;;;;;;9.53;3.30;;;;;;;;;;5115196;27;20195;-84
2024/01/15 12:12:26;;;;;;;14.83;2.70;;;;;;;;;;5133516;27;20198;-84
2024/01/15 12:14:54;;;;;;;9.10;2.70;;;;;;;;;;5133525;27;20248;-84
2024/01/15 12:17:23;;;;;;;3.23;1.83;;;;;;;;;;5114537;27;20195;-84
2024/01/15 12:19:54;;;;;;;5.03;2.57;;;;;;;;;;5132256;27;20201;-84
2024/01/15 12:22:24;;;;;;;4.00;2.77;;;;;;;;;;5114984;27;20350;-84
2024/01/15 12:24:52;;;;;;;3.20;2.40;;;;;;;;;;5133303;27;20396;-84
2024/01/15 12:27:21;;;;;;;9.33;1.87;;;;;;;;;;5114074;27;20271;-84
2024/01/15 12:29:49;;;;;;;3.60;2.13;;;;;;;;;;5114787;27;20222;-84
2024/01/15 12:32:18;;;;;;;2.17;1.97;;;;;;;;;;5132663;27;20196;-84
2024/01/15 12:34:46;;;;;;;5.50;2.43;;;;;;;;;;5115574;27;20221;-84
2024/01/15 12:37:15;;;;;;;10.80;1.73;;;;;;;;;;5132672;27;20211;-84
2024/01/15 12:39:46;;;;;;;2.37;1.23;;;;;;;;;;5133442;27;20212;-84
2024/01/15 12:42:16;;;;;;;3.13;2.40;;;;;;;;;;5114748;27;20196;-84
2024/01/15 12:44:46;;;;;;;1.57;1.47;;;;;;;;;;5114507;27;20253;-83
2024/01/15 12:47:17;;;;;;;1.57;1.47;;;;;;;;;;5132954;27;20196;-83
2024/01/15 12:49:49;;;;;;;5.93;3.00;;;;;;;;;;5113898;27;20310;-83
2024/01/15 12:52:21;;;;;;;1.33;1.23;;;;;;;;;;5113819;27;20203;-86
2024/01/15 12:54:51;;;;;;;0.70;0.70;;;;;;;;;;5133079;27;20199;-85
2024/01/15 12:57:24;;;;;;;0.80;0.80;;;;;;;;;;5115999;28;20268;-85
2024/01/15 12:59:58;;;;;;;0.80;0.80;;;;;;;;;;5131936;28;20196;-85
2024/01/15 13:02:30;;;;;;;0.80;0.80;;;;;;;;;;5116046;28;20449;-85
2024/01/15 13:05:00;;;;;;;0.90;0.90;;;;;;;;;;5114273;28;20204;-85
2024/01/15 13:07:29;;;;;;;0.80;0.80;;;;;;;;;;5115343;28;20248;-85
2024/01/15 13:09:59;;;;;;;0.80;0.80;;;;;;;;;;5114426;28;20248;-85
2024/01/15 13:12:35;;;;;;;0.80;0.80;;;;;;;;;;5115999;28;20204;-85
2024/01/15 13:15:04;;;;;;;2.57;1.20;;;;;;;;;;5115155;28;20201;-85
2024/01/15 13:17:32;;;;;;;4.17;2.27;;;;;;;;;;5115000;28;20219;-85
2024/01/15 13:20:03;;;;;;;0.80;0.80;;;;;;;;;;5132822;28;20292;-85
2024/01/15 13:22:32;;;;;;;5.57;2.83;;;;;;;;;;5115077;28;20258;-85
2024/01/15 13:25:03;;;;;;;7.23;3.83;;;;;;;;;;5115523;28;20202;-84
2024/01/15 13:27:32;;;;;;;9.80;2.90;;;;;;;;;;5133854;28;20195;-84
2024/01/15 13:30:01;;;;;;;8.13;2.53;;;;;;;;;;5115481;28;20240;-85
2024/01/15 13:32:30;;;;;;;8.47;2.53;;;;;;;;;;5113192;28;20219;-83
2024/01/15 13:34:59;;;;;;;8.17;2.93;;;;;;;;;;5116669;28;20228;-83
2024/01/15 13:37:29;;;;;;;4.57;2.23;;;;;;;;;;5114171;28;20230;-83
2024/01/15 13:39:58;;;;;;;7.40;3.00;;;;;;;;;;5115701;28;20204;-82
2024/01/15 13:42:28;;;;;;;8.77;2.77;;;;;;;;;;5132341;28;20192;-83
2024/01/15 13:44:56;;;;;;;12.77;3.47;;;;;;;;;;5113915;28;20293;-83
2024/01/15 13:47:25;;;;;;;11.27;3.87;;;;;;;;;;5114219;27;20286;-82
2024/01/15 13:49:54;;;;;;;9.93;3.63;;;;;;;;;;5135536;27;20222;-82
2024/01/15 13:52:23;;;;;;;7.63;1.93;;;;;;;;;;5135767;27;20200;-82
2024/01/15 13:54:52;;;;;;;7.00;3.17;;;;;;;;;;5117561;27;20205;-82
2024/01/15 13:57:20;;;;;;;6.93;3.07;;;;;;;;;;5117537;27;20207;-82
2024/01/15 13:59:50;;;;;;;6.93;3.60;;;;;;;;;;5135881;27;20207;-82
2024/01/15 14:02:20;;;;;;;13.67;3.43;;;;;;;;;;5134776;27;20191;-82
2024/01/15 14:04:51;;;;;;;15.83;3.40;;;;;;;;;;5135759;27;20286;-83
2024/01/15 14:07:23;;;;;;;11.80;3.07;;;;;;;;;;5116783;27;20202;-82
2024/01/15 14:09:52;;;;;;;9.80;2.67;;;;;;;;;;5117225;27;20456;-83
2024/01/15 14:12:21;;;;;;;2.87;2.63;;;;;;;;;;5116762;27;20251;-82
2024/01/15 14:14:51;;;;;;;5.23;2.20;;;;;;;;;;5135292;27;20210;-82
2024/01/15 14:17:20;;;;;;;5.63;2.50;;;;;;;;;;5117841;27;20235;-82
2024/01/15 14:19:48;;;;;;;4.00;2.10;;;;;;;;;;5117430;27;20267;-82
2024/01/15 14:22:19;;;;;;;4.97;1.67;;;;;;;;;;5135103;27;20196;-82
2024/01/15 14:24:49;;;;;;;5.43;1.93;;;;;;;;;;5134557;27;20196;-81
2024/01/15 14:27:18;;;;;;;7.00;1.80;;;;;;;;;;5135258;27;20187;-79
2024/01/15 14:29:47;;;;;;;5.07;3.47;;;;;;;;;;5117394;27;20195;-79
2024/01/15 14:32:18;;;;;;;2.80;1.87;;;;;;;;;;5117154;27;20199;-79
2024/01/15 14:34:46;;;;;;;5.43;2.07;;;;;;;;;;5116649;27;20252;-79
2024/01/15 14:37:15;;;;;;;3.33;2.00;;;;;;;;;;5134586;27;20218;-79
2024/01/15 14:39:43;;;;;;;4.83;2.13;;;;;;;;;;5116797;27;20200;-79
2024/01/15 14:42:12;;;;;;;3.53;1.80;;;;;;;;;;5134846;27;20191;-79
2024/01/15 14:44:41;;;;;;;6.87;2.40;;;;;;;;;;5134679;27;20217;-79
2024/01/15 14:47:10;;;;;;;5.67;2.33;;;;;;;;;;5135406;27;20425;-79
2024/01/15 14:49:42;;;;;;;3.17;2.67;;;;;;;;;;5116381;27;20223;-79
2024/01/15 14:52:12;;;;;;;8.10;3.00;;;;;;;;;;5116276;27;20204;-79
2024/01/15 14:54:41;;;;;;;9.90;2.97;;;;;;;;;;5116405;27;20196;-79
2024/01/15 14:57:13;;;;;;;5.47;2.17;;;;;;;;;;5117020;27;20284;-79